createdAt,value
2018-09-09T00:01:55.183Z,71.29
2018-09-09T00:04:23.922Z,70.76
2018-09-09T00:06:52.735Z,72.00
2018-09-09T00:09:27.019Z,72.18
2018-09-09T00:11:56.318Z,71.38
2018-09-09T00:14:25.073Z,71.47
2018-09-09T00:16:53.913Z,71.54
2018-09-09T00:19:22.935Z,71.06
2018-09-09T00:21:51.796Z,72.61
2018-09-09T00:24:20.716Z,72.25
2018-09-09T00:26:49.540Z,71.89
2018-09-09T00:29:18.348Z,72.10
2018-09-09T00:31:47.136Z,71.33
2018-09-09T00:34:15.942Z,72.33
2018-09-09T00:36:44.782Z,72.22
2018-09-09T00:39:13.624Z,72.32
2018-09-09T00:41:42.423Z,72.05
2018-09-09T00:44:11.230Z,72.13
2018-09-09T00:46:40.011Z,72.88
2018-09-09T00:49:14.594Z,73.17
2018-09-09T00:52:47.592Z,73.59
2018-09-09T00:55:16.344Z,75.04
2018-09-09T00:57:45.158Z,74.39
2018-09-09T01:00:14.070Z,74.48
2018-09-09T01:02:42.915Z,74.93
2018-09-09T01:05:11.699Z,74.67
2018-09-09T01:07:40.510Z,74.29
2018-09-09T01:10:09.330Z,73.59
2018-09-09T01:12:38.152Z,74.29
2018-09-09T01:15:07.240Z,73.36
2018-09-09T01:17:36.073Z,73.70
2018-09-09T01:20:04.968Z,73.58
2018-09-09T01:22:33.747Z,73.55
2018-09-09T01:25:02.647Z,73.85
2018-09-09T01:27:31.512Z,73.75
2018-09-09T01:30:00.348Z,75.03
2018-09-09T01:32:29.162Z,72.96
2018-09-09T01:34:57.969Z,72.48
2018-09-09T01:37:26.805Z,72.50
2018-09-09T01:39:55.656Z,72.24
2018-09-09T01:42:24.423Z,71.99
2018-09-09T01:44:55.099Z,71.48
2018-09-09T01:47:23.904Z,71.25
2018-09-09T01:49:52.882Z,70.81
2018-09-09T01:52:21.679Z,71.81
2018-09-09T01:54:50.430Z,70.66
2018-09-09T01:57:19.252Z,70.92
2018-09-09T01:59:48.039Z,70.38
2018-09-09T02:02:17.060Z,70.31
2018-09-09T02:04:45.833Z,69.89
2018-09-09T02:07:14.825Z,69.63
2018-09-09T02:09:43.695Z,69.65
2018-09-09T02:12:12.521Z,70.06
2018-09-09T02:14:41.384Z,70.07
2018-09-09T02:17:10.210Z,70.06
2018-09-09T02:19:38.976Z,69.75
2018-09-09T02:22:07.895Z,69.16
2018-09-09T02:24:36.676Z,69.29
2018-09-09T02:27:05.275Z,69.02
2018-09-09T02:29:34.097Z,68.59
2018-09-09T02:32:02.959Z,69.38
2018-09-09T02:34:31.708Z,69.36
2018-09-09T02:37:00.544Z,68.75
2018-09-09T02:39:29.444Z,68.57
2018-09-09T02:41:58.262Z,68.82
2018-09-09T02:44:27.027Z,68.76
2018-09-09T02:46:55.811Z,68.12
2018-09-09T02:49:24.576Z,68.56
2018-09-09T02:51:53.442Z,68.55
2018-09-09T02:54:22.223Z,68.70
2018-09-09T02:56:51.068Z,68.71
2018-09-09T02:59:19.927Z,68.83
2018-09-09T03:01:48.739Z,69.01
2018-09-09T03:04:17.624Z,68.72
2018-09-09T03:06:46.383Z,68.68
2018-09-09T03:09:15.228Z,68.66
2018-09-09T03:11:44.033Z,68.24
2018-09-09T03:14:12.837Z,68.81
2018-09-09T03:16:41.654Z,68.28
2018-09-09T03:19:10.543Z,68.87
2018-09-09T03:21:39.275Z,69.67
2018-09-09T03:24:08.383Z,70.04
2018-09-09T03:26:37.204Z,70.76
2018-09-09T03:29:06.135Z,71.08
2018-09-09T03:31:34.924Z,70.82
2018-09-09T03:34:03.754Z,70.83
2018-09-09T03:36:32.535Z,71.06
2018-09-09T03:39:01.335Z,70.92
2018-09-09T03:41:30.144Z,70.07
2018-09-09T03:43:58.968Z,71.23
2018-09-09T03:46:27.766Z,71.37
2018-09-09T03:48:56.800Z,72.08
2018-09-09T03:51:25.574Z,72.00
2018-09-09T03:53:54.413Z,72.43
2018-09-09T03:56:23.264Z,73.09
2018-09-09T03:58:52.139Z,72.02
2018-09-09T04:01:21.299Z,72.75
2018-09-09T04:03:50.060Z,71.62
2018-09-09T04:06:18.953Z,72.02
2018-09-09T04:08:47.735Z,72.94
2018-09-09T04:11:16.526Z,72.47
2018-09-09T04:13:45.288Z,71.82
2018-09-09T04:16:14.148Z,72.18
2018-09-09T04:18:43.461Z,70.52
2018-09-09T04:21:12.279Z,70.79
2018-09-09T04:23:41.057Z,70.87
2018-09-09T04:26:10.170Z,71.98
2018-09-09T04:28:38.915Z,71.82
2018-09-09T04:31:07.831Z,70.65
2018-09-09T04:33:36.572Z,71.20
2018-09-09T04:36:05.386Z,71.37
2018-09-09T04:38:34.168Z,71.10
2018-09-09T04:41:02.995Z,70.62
2018-09-09T04:43:31.835Z,70.78
2018-09-09T04:46:00.614Z,70.90
2018-09-09T04:48:29.459Z,70.37
2018-09-09T04:50:58.401Z,70.57
2018-09-09T04:53:27.232Z,70.39
2018-09-09T04:55:56.062Z,70.31
2018-09-09T04:58:24.876Z,70.25
2018-09-09T05:00:53.667Z,70.72
2018-09-09T05:03:22.560Z,70.91
2018-09-09T05:05:51.353Z,70.96
2018-09-09T05:08:20.241Z,69.96
2018-09-09T05:10:49.085Z,69.83
2018-09-09T05:13:17.896Z,70.20
2018-09-09T05:15:46.696Z,70.35
2018-09-09T05:18:15.501Z,69.54
2018-09-09T05:20:44.330Z,69.61
2018-09-09T05:23:13.481Z,69.51
2018-09-09T05:25:42.243Z,69.05
2018-09-09T05:28:11.359Z,69.77
2018-09-09T05:30:40.133Z,69.17
2018-09-09T05:33:09.164Z,69.39
2018-09-09T05:35:37.979Z,68.71
2018-09-09T05:38:06.791Z,69.63
2018-09-09T05:40:35.552Z,69.14
2018-09-09T05:43:04.415Z,68.98
2018-09-09T05:45:33.299Z,69.87
2018-09-09T05:48:02.173Z,69.21
2018-09-09T05:50:31.111Z,68.31
2018-09-09T05:52:59.872Z,67.94
2018-09-09T05:55:28.695Z,68.27
2018-09-09T05:57:57.861Z,68.41
2018-09-09T06:00:26.677Z,68.05
2018-09-09T06:02:55.488Z,67.57
2018-09-09T06:05:24.312Z,67.23
2018-09-09T06:07:53.150Z,67.04
2018-09-09T06:10:22.024Z,67.63
2018-09-09T06:12:51.008Z,67.05
2018-09-09T06:15:19.988Z,66.52
2018-09-09T06:17:48.820Z,67.00
2018-09-09T06:20:18.013Z,66.86
2018-09-09T06:22:46.814Z,67.17
2018-09-09T06:25:15.658Z,66.85
2018-09-09T06:27:44.457Z,66.23
2018-09-09T06:30:13.688Z,67.19
2018-09-09T06:32:42.453Z,65.99
2018-09-09T06:35:11.347Z,66.99
2018-09-09T06:37:40.116Z,65.75
2018-09-09T06:40:08.943Z,65.52
2018-09-09T06:42:37.790Z,65.61
2018-09-09T06:45:12.682Z,65.98
2018-09-09T06:47:41.504Z,65.02
2018-09-09T06:50:10.360Z,65.31
2018-09-09T06:52:39.189Z,64.09
2018-09-09T06:55:08.115Z,63.42
2018-09-09T06:57:36.933Z,63.25
2018-09-09T07:00:06.129Z,63.74
2018-09-09T07:02:35.021Z,62.43
2018-09-09T07:05:03.970Z,62.28
2018-09-09T07:07:33.112Z,61.10
2018-09-09T07:10:01.876Z,60.44
2018-09-09T07:12:30.719Z,59.53
2018-09-09T07:14:59.481Z,58.91
2018-09-09T07:17:28.462Z,59.35
2018-09-09T07:19:57.251Z,58.66
2018-09-09T07:22:26.275Z,57.36
2018-09-09T07:24:55.715Z,56.85
2018-09-09T07:27:24.614Z,57.23
2018-09-09T07:29:53.396Z,57.65
2018-09-09T07:32:22.223Z,57.62
2018-09-09T07:34:51.080Z,57.48
2018-09-09T07:37:19.964Z,57.40
2018-09-09T07:39:49.148Z,57.76
2018-09-09T07:42:21.937Z,57.57
2018-09-09T07:44:55.013Z,57.33
2018-09-09T07:47:25.775Z,57.70
2018-09-09T07:49:54.701Z,57.43
2018-09-09T07:52:23.521Z,57.31
2018-09-09T07:54:52.528Z,57.30
2018-09-09T07:57:21.443Z,57.18
2018-09-09T07:59:50.263Z,55.92
2018-09-09T08:02:19.308Z,56.33
2018-09-09T08:04:48.212Z,55.91
2018-09-09T08:07:17.027Z,56.39
2018-09-09T08:09:45.932Z,56.38
2018-09-09T08:12:14.760Z,56.83
2018-09-09T08:14:43.684Z,57.47
2018-09-09T08:17:12.775Z,57.57
2018-09-09T08:19:41.577Z,56.62
2018-09-09T08:22:10.360Z,56.51
2018-09-09T08:24:39.208Z,56.51
2018-09-09T08:27:08.040Z,56.70
2018-09-09T08:29:36.829Z,56.34
2018-09-09T08:32:05.651Z,57.27
2018-09-09T08:34:34.452Z,56.02
2018-09-09T08:37:03.215Z,54.86
2018-09-09T08:39:32.308Z,55.21
2018-09-09T08:42:01.065Z,55.16
2018-09-09T08:44:29.842Z,55.12
2018-09-09T08:46:58.652Z,54.37
2018-09-09T08:49:27.483Z,55.59
2018-09-09T08:51:56.696Z,55.01
2018-09-09T08:54:25.474Z,54.34
2018-09-09T08:56:54.279Z,54.94
2018-09-09T08:59:23.084Z,54.03
2018-09-09T09:01:51.948Z,53.96
2018-09-09T09:04:20.822Z,55.42
2018-09-09T09:06:49.650Z,54.43
2018-09-09T09:09:18.466Z,54.38
2018-09-09T09:11:47.298Z,54.57
2018-09-09T09:14:16.235Z,54.59
2018-09-09T09:16:45.163Z,54.10
2018-09-09T09:19:13.982Z,53.85
2018-09-09T09:21:42.835Z,53.75
2018-09-09T09:24:11.619Z,54.10
2018-09-09T09:26:40.455Z,55.73
2018-09-09T09:29:09.710Z,54.13
2018-09-09T09:31:38.566Z,53.77
2018-09-09T09:34:07.390Z,52.68
2018-09-09T09:36:36.160Z,52.10
2018-09-09T09:39:07.144Z,52.00
2018-09-09T09:41:35.988Z,51.49
2018-09-09T09:44:04.834Z,53.30
2018-09-09T09:46:33.813Z,52.11
2018-09-09T09:49:02.600Z,52.50
2018-09-09T09:51:31.357Z,52.70
2018-09-09T09:54:00.253Z,52.72
2018-09-09T09:56:29.014Z,52.82
2018-09-09T09:58:57.862Z,52.45
2018-09-09T10:01:26.835Z,52.25
2018-09-09T10:03:55.688Z,52.04
2018-09-09T10:06:24.564Z,52.38
2018-09-09T10:08:53.792Z,51.59
2018-09-09T10:11:22.548Z,50.54
2018-09-09T10:13:51.411Z,49.83
2018-09-09T10:16:20.243Z,49.40
2018-09-09T10:18:49.147Z,49.35
2018-09-09T10:21:17.961Z,49.69
2018-09-09T10:23:46.884Z,48.18
2018-09-09T10:26:15.606Z,48.27
2018-09-09T10:28:44.436Z,48.39
2018-09-09T10:31:13.276Z,48.17
2018-09-09T10:33:42.126Z,47.38
2018-09-09T10:36:10.915Z,48.69
2018-09-09T10:38:39.676Z,46.88
2018-09-09T10:41:08.520Z,46.09
2018-09-09T10:43:37.358Z,45.35
2018-09-09T10:46:06.316Z,46.49
2018-09-09T10:48:35.113Z,46.79
2018-09-09T10:51:04.032Z,45.83
2018-09-09T10:53:32.823Z,45.63
2018-09-09T10:56:01.740Z,45.40
2018-09-09T10:58:30.608Z,46.05
2018-09-09T11:00:59.446Z,46.21
2018-09-09T11:03:28.280Z,45.69
2018-09-09T11:05:57.111Z,45.30
2018-09-09T11:08:26.091Z,46.29
2018-09-09T11:10:54.911Z,46.39
2018-09-09T11:13:23.682Z,47.29
2018-09-09T11:15:52.478Z,46.48
2018-09-09T11:18:21.249Z,45.98
2018-09-09T11:20:50.143Z,44.60
2018-09-09T11:23:18.899Z,44.99
2018-09-09T11:25:47.813Z,45.33
2018-09-09T11:28:16.578Z,45.21
2018-09-09T11:30:45.420Z,44.52
2018-09-09T11:33:14.383Z,45.64
2018-09-09T11:35:43.188Z,44.89
2018-09-09T11:38:12.017Z,45.31
2018-09-09T11:40:40.871Z,46.09
2018-09-09T11:43:09.735Z,44.60
2018-09-09T11:45:38.600Z,45.31
2018-09-09T11:48:07.497Z,44.59
2018-09-09T11:50:36.271Z,45.95
2018-09-09T11:53:05.510Z,44.77
2018-09-09T11:55:34.382Z,46.24
2018-09-09T11:58:03.413Z,46.47
2018-09-09T12:00:32.243Z,45.80
2018-09-09T12:03:01.159Z,45.68
2018-09-09T12:05:30.105Z,45.40
2018-09-09T12:07:58.944Z,46.68
2018-09-09T12:10:27.819Z,46.17
2018-09-09T12:12:56.650Z,46.58
2018-09-09T12:15:25.401Z,42.51
2018-09-09T12:17:54.214Z,44.12
2018-09-09T12:20:23.027Z,43.99
2018-09-09T12:22:51.964Z,44.75
2018-09-09T12:25:20.771Z,44.48
2018-09-09T12:27:49.579Z,46.28
2018-09-09T12:30:18.400Z,45.30
2018-09-09T12:32:47.157Z,46.44
2018-09-09T12:35:16.108Z,44.21
2018-09-09T12:37:44.937Z,43.31
2018-09-09T12:40:13.763Z,42.39
2018-09-09T12:42:42.537Z,43.45
2018-09-09T12:45:17.076Z,43.25
2018-09-09T12:47:51.316Z,43.03
2018-09-09T12:50:20.223Z,43.41
2018-09-09T12:52:48.979Z,42.97
2018-09-09T12:55:17.816Z,43.91
2018-09-09T12:57:46.667Z,45.34
2018-09-09T13:00:15.712Z,45.36
2018-09-09T13:02:44.506Z,45.05
2018-09-09T13:05:13.336Z,44.86
2018-09-09T13:07:42.227Z,47.50
2018-09-09T13:10:11.320Z,46.89
2018-09-09T13:12:45.701Z,46.28
2018-09-09T13:15:14.639Z,46.33
2018-09-09T13:17:43.423Z,45.83
2018-09-09T13:20:12.254Z,44.95
2018-09-09T13:22:41.164Z,45.08
2018-09-09T13:25:10.017Z,44.58
2018-09-09T13:27:38.873Z,44.94
2018-09-09T13:30:07.811Z,44.04
2018-09-09T13:32:36.633Z,44.28
2018-09-09T13:35:05.589Z,43.64
2018-09-09T13:37:34.415Z,44.55
2018-09-09T13:40:03.314Z,42.98
2018-09-09T13:42:32.192Z,42.99
2018-09-09T13:45:01.048Z,42.46
2018-09-09T13:47:29.964Z,43.12
2018-09-09T13:49:58.763Z,42.80
2018-09-09T13:52:27.590Z,43.01
2018-09-09T13:54:56.403Z,42.68
2018-09-09T13:57:25.218Z,42.43
2018-09-09T13:59:54.438Z,43.10
2018-09-09T14:02:23.880Z,43.21
2018-09-09T14:04:52.634Z,42.16
2018-09-09T14:07:21.479Z,42.09
2018-09-09T14:09:50.237Z,41.76
2018-09-09T14:12:19.157Z,41.79
2018-09-09T14:14:47.946Z,41.38
2018-09-09T14:17:16.782Z,41.49
2018-09-09T14:19:45.601Z,41.75
2018-09-09T14:22:14.513Z,42.94
2018-09-09T14:24:43.381Z,42.56
2018-09-09T14:27:12.243Z,41.70
2018-09-09T14:29:41.027Z,40.88
2018-09-09T14:32:09.866Z,40.45
2018-09-09T14:34:38.635Z,41.59
2018-09-09T14:37:07.524Z,39.68
2018-09-09T14:39:36.360Z,40.30
2018-09-09T14:42:05.155Z,41.13
2018-09-09T14:44:33.974Z,40.94
2018-09-09T14:47:02.836Z,41.69
2018-09-09T14:49:31.759Z,42.29
2018-09-09T14:52:00.816Z,43.00
2018-09-09T14:54:29.651Z,42.55
2018-09-09T14:56:58.415Z,43.35
2018-09-09T14:59:27.325Z,43.83
2018-09-09T15:01:56.402Z,43.45
2018-09-09T15:04:25.314Z,42.93
2018-09-09T15:06:54.272Z,43.26
2018-09-09T15:09:23.064Z,41.87
2018-09-09T15:11:51.854Z,41.29
2018-09-09T15:14:20.839Z,40.37
2018-09-09T15:16:49.615Z,41.86
2018-09-09T15:19:18.444Z,42.79
2018-09-09T15:21:47.247Z,41.98
2018-09-09T15:24:16.191Z,42.10
2018-09-09T15:26:45.079Z,41.09
2018-09-09T15:29:13.893Z,40.29
2018-09-09T15:31:42.718Z,40.59
2018-09-09T15:34:11.536Z,40.42
2018-09-09T15:36:40.380Z,41.47
2018-09-09T15:39:09.294Z,41.44
2018-09-09T15:41:38.108Z,41.08
2018-09-09T15:44:06.916Z,41.42
2018-09-09T15:46:35.748Z,41.29
2018-09-09T15:49:04.552Z,41.77
2018-09-09T15:51:33.485Z,42.65
2018-09-09T15:54:02.272Z,42.95
2018-09-09T15:56:31.101Z,43.02
2018-09-09T15:58:59.895Z,43.26
2018-09-09T16:01:28.715Z,43.87
2018-09-09T16:03:57.637Z,43.54
2018-09-09T16:06:26.439Z,43.79
2018-09-09T16:08:55.225Z,43.55
2018-09-09T16:11:24.098Z,44.52
2018-09-09T16:13:52.880Z,43.73
2018-09-09T16:16:21.804Z,43.93
2018-09-09T16:18:50.669Z,45.01
2018-09-09T16:21:19.443Z,44.67
2018-09-09T16:23:48.292Z,44.17
2018-09-09T16:26:17.063Z,43.83
2018-09-09T16:28:46.046Z,43.85
2018-09-09T16:31:14.861Z,43.30
2018-09-09T16:33:43.694Z,44.83
2018-09-09T16:36:12.564Z,45.18
2018-09-09T16:38:41.429Z,45.18
2018-09-09T16:41:10.309Z,45.65
2018-09-09T16:43:39.151Z,46.74
2018-09-09T16:46:07.931Z,47.11
2018-09-09T16:48:37.102Z,45.65
2018-09-09T16:51:05.975Z,46.38
2018-09-09T16:53:34.928Z,47.07
2018-09-09T16:56:04.011Z,48.12
2018-09-09T16:58:32.870Z,48.26
2018-09-09T17:01:01.623Z,49.18
2018-09-09T17:03:30.463Z,48.34
2018-09-09T17:05:59.343Z,48.59
2018-09-09T17:08:28.395Z,48.69
2018-09-09T17:10:57.191Z,49.46
2018-09-09T17:13:25.975Z,49.06
2018-09-09T17:15:54.877Z,49.01
2018-09-09T17:18:24.074Z,49.66
2018-09-09T17:20:52.895Z,50.12
2018-09-09T17:23:21.703Z,50.46
2018-09-09T17:25:50.526Z,50.64
2018-09-09T17:28:19.308Z,51.15
2018-09-09T17:30:48.208Z,51.31
2018-09-09T17:33:16.981Z,51.27
2018-09-09T17:35:45.853Z,51.30
2018-09-09T17:38:14.683Z,52.31
2018-09-09T17:40:43.513Z,51.42
2018-09-09T17:43:12.351Z,52.28
2018-09-09T17:45:47.460Z,52.73
2018-09-09T17:48:17.105Z,52.69
2018-09-09T17:50:45.918Z,52.51
2018-09-09T17:53:14.753Z,53.21
2018-09-09T17:55:43.595Z,53.15
2018-09-09T17:58:12.359Z,53.11
2018-09-09T18:00:41.189Z,54.07
2018-09-09T18:03:10.043Z,54.73
2018-09-09T18:05:39.029Z,54.57
2018-09-09T18:08:07.853Z,54.72
2018-09-09T18:10:36.732Z,55.25
2018-09-09T18:13:05.526Z,55.88
2018-09-09T18:15:34.360Z,56.57
2018-09-09T18:18:03.388Z,57.90
2018-09-09T18:20:32.224Z,57.80
2018-09-09T18:23:01.027Z,58.07
2018-09-09T18:25:29.907Z,58.29
2018-09-09T18:27:58.768Z,58.70
2018-09-09T18:30:27.716Z,59.11
2018-09-09T18:32:56.623Z,60.18
2018-09-09T18:35:25.434Z,60.89
2018-09-09T18:37:54.279Z,60.33
2018-09-09T18:40:23.069Z,61.27
2018-09-09T18:42:52.856Z,62.24
2018-09-09T18:45:28.627Z,63.53
2018-09-09T18:47:57.447Z,62.79
2018-09-09T18:50:26.272Z,63.25
2018-09-09T18:52:55.370Z,63.52
2018-09-09T18:55:24.286Z,63.82
2018-09-09T18:57:53.575Z,64.17
2018-09-09T19:00:22.554Z,63.84
2018-09-09T19:02:51.463Z,64.40
2018-09-09T19:05:20.369Z,64.30
2018-09-09T19:07:49.625Z,64.66
2018-09-09T19:10:18.663Z,64.79
2018-09-09T19:12:47.627Z,64.90
2018-09-09T19:15:16.821Z,65.23
2018-09-09T19:17:45.699Z,65.84
2018-09-09T19:20:14.547Z,66.34
2018-09-09T19:22:43.357Z,67.25
2018-09-09T19:25:12.256Z,66.83
2018-09-09T19:27:41.245Z,67.71
2018-09-09T19:30:10.212Z,67.73
2018-09-09T19:32:39.007Z,68.01
2018-09-09T19:35:08.001Z,68.26
2018-09-09T19:37:36.759Z,68.43
2018-09-09T19:40:05.977Z,68.38
2018-09-09T19:42:36.855Z,68.15
2018-09-09T19:45:06.687Z,67.79
2018-09-09T19:47:35.479Z,67.50
2018-09-09T19:50:05.387Z,67.18
2018-09-09T19:52:34.744Z,67.65
2018-09-09T19:55:03.705Z,68.03
2018-09-09T19:57:32.692Z,67.58
2018-09-09T20:00:01.551Z,67.64
2018-09-09T20:02:30.403Z,68.09
2018-09-09T20:04:59.227Z,68.94
2018-09-09T20:07:28.079Z,68.98
2018-09-09T20:09:56.898Z,68.70
2018-09-09T20:12:25.674Z,69.06
2018-09-09T20:14:54.582Z,68.83
2018-09-09T20:17:23.415Z,68.83
2018-09-09T20:19:52.372Z,68.73
2018-09-09T20:22:21.179Z,69.12
2018-09-09T20:24:50.196Z,69.63
2018-09-09T20:27:19.818Z,69.30
2018-09-09T20:29:49.874Z,69.06
2018-09-09T20:32:18.760Z,68.71
2018-09-09T20:34:47.644Z,69.24
2018-09-09T20:37:16.450Z,69.34
2018-09-09T20:39:45.310Z,69.28
2018-09-09T20:42:14.264Z,69.42
2018-09-09T20:44:43.420Z,70.92
2018-09-09T20:47:12.359Z,70.82
2018-09-09T20:49:41.232Z,71.04
2018-09-09T20:52:10.044Z,71.36
2018-09-09T20:54:38.807Z,71.75
2018-09-09T20:57:07.693Z,71.20
2018-09-09T20:59:36.544Z,71.99
2018-09-09T21:02:06.350Z,71.85
2018-09-09T21:04:35.293Z,71.62
2018-09-09T21:07:04.192Z,70.50
2018-09-09T21:09:33.116Z,69.82
2018-09-09T21:12:01.922Z,70.43
2018-09-09T21:14:30.739Z,70.34
2018-09-09T21:16:59.564Z,70.28
2018-09-09T21:19:28.384Z,70.13
2018-09-09T21:21:57.259Z,70.00
2018-09-09T21:24:26.130Z,69.30
2018-09-09T21:26:55.303Z,69.75
2018-09-09T21:29:24.154Z,70.07
2018-09-09T21:31:53.202Z,69.92
2018-09-09T21:34:22.091Z,70.37
2018-09-09T21:36:50.903Z,70.23
2018-09-09T21:39:19.795Z,70.18
2018-09-09T21:41:48.564Z,70.42
2018-09-09T21:44:17.384Z,70.66
2018-09-09T21:46:46.509Z,70.70
2018-09-09T21:49:15.754Z,71.20
2018-09-09T21:51:44.543Z,70.95
2018-09-09T21:54:13.351Z,71.50
2018-09-09T21:56:43.132Z,70.88
2018-09-09T21:59:12.008Z,71.19
2018-09-09T22:01:46.280Z,71.82
2018-09-09T22:04:15.152Z,71.12
2018-09-09T22:06:43.895Z,71.57
2018-09-09T22:09:12.788Z,72.37
2018-09-09T22:11:41.656Z,71.27
2018-09-09T22:14:10.546Z,71.56
2018-09-09T22:16:39.290Z,71.59
2018-09-09T22:19:08.244Z,70.83
2018-09-09T22:21:37.240Z,72.00
2018-09-09T22:24:06.090Z,71.80
2018-09-09T22:26:34.895Z,72.32
2018-09-09T22:29:03.686Z,72.23
2018-09-09T22:31:32.567Z,71.78
2018-09-09T22:34:01.323Z,71.62
2018-09-09T22:36:30.276Z,72.19
2018-09-09T22:38:59.031Z,72.23
2018-09-09T22:41:27.876Z,72.19
2018-09-09T22:43:56.627Z,72.45
2018-09-09T22:46:25.469Z,72.03
2018-09-09T22:48:54.270Z,71.25
2018-09-09T22:51:23.163Z,73.23
2018-09-09T22:53:51.941Z,72.92
2018-09-09T22:56:20.796Z,72.39
2018-09-09T22:58:49.556Z,70.97
2018-09-09T23:01:18.436Z,71.26
2018-09-09T23:03:47.412Z,70.74
2018-09-09T23:06:16.203Z,69.98
2018-09-09T23:08:45.006Z,71.17
2018-09-09T23:11:14.311Z,71.86
2018-09-09T23:13:43.172Z,70.85
2018-09-09T23:16:12.030Z,71.94
2018-09-09T23:18:40.859Z,71.66
2018-09-09T23:21:09.636Z,71.85
2018-09-09T23:23:38.500Z,71.44
2018-09-09T23:26:07.371Z,71.99
2018-09-09T23:28:36.212Z,71.62
2018-09-09T23:31:05.060Z,71.70
2018-09-09T23:33:33.912Z,72.79
2018-09-09T23:36:02.716Z,72.94
2018-09-09T23:38:31.647Z,72.92
2018-09-09T23:41:00.598Z,73.19
2018-09-09T23:43:29.435Z,72.57
2018-09-09T23:45:58.248Z,72.66
2018-09-09T23:48:27.103Z,72.41
2018-09-09T23:50:55.928Z,72.02
2018-09-09T23:53:24.824Z,72.95
2018-09-09T23:55:53.660Z,72.22
2018-09-09T23:58:22.456Z,72.99
